createdAt,value
2017-11-05T00:00:31.088Z,12.1
2017-11-05T00:01:30.787Z,12.07
2017-11-05T00:02:30.479Z,12.09
2017-11-05T00:03:31.147Z,12.15
2017-11-05T00:04:31.171Z,12.09
2017-11-05T00:05:30.855Z,11.9
2017-11-05T00:06:30.877Z,12.04
2017-11-05T00:07:30.946Z,12.12
2017-11-05T00:08:30.914Z,12.06
2017-11-05T00:09:30.937Z,12.03
2017-11-05T00:10:30.977Z,12.1
2017-11-05T00:11:30.976Z,12.04
2017-11-05T00:12:30.669Z,12.12
2017-11-05T00:13:31.339Z,12.07
2017-11-05T00:14:30.711Z,12.09
2017-11-05T00:15:30.727Z,12.09
2017-11-05T00:16:31.391Z,12.13
2017-11-05T00:17:30.772Z,12.1
2017-11-05T00:18:31.106Z,12.18
2017-11-05T00:19:30.817Z,12.06
2017-11-05T00:20:31.469Z,12.09
2017-11-05T00:21:31.171Z,12.1
2017-11-05T00:22:30.911Z,12.12
2017-11-05T00:23:31.196Z,12.2
2017-11-05T00:24:31.217Z,12.1
2017-11-05T00:25:31.257Z,12.07
2017-11-05T00:26:31.258Z,12.02
2017-11-05T00:27:30.953Z,12.09
2017-11-05T00:28:31.299Z,11.95
2017-11-05T00:29:31.315Z,11.99
2017-11-05T00:30:31.334Z,11.95
2017-11-05T00:31:31.032Z,12.02
2017-11-05T00:32:31.057Z,11.87
2017-11-05T00:33:31.073Z,11.88
2017-11-05T00:34:31.733Z,11.97
2017-11-05T00:35:31.111Z,11.87
2017-11-05T00:36:31.450Z,11.77
2017-11-05T00:37:31.840Z,11.78
2017-11-05T00:38:31.488Z,11.83
2017-11-05T00:39:31.829Z,11.75
2017-11-05T00:40:31.877Z,11.7
2017-11-05T00:41:31.874Z,11.69
2017-11-05T00:42:31.891Z,11.75
2017-11-05T00:43:31.638Z,11.78
2017-11-05T00:44:31.625Z,11.77
2017-11-05T00:45:31.620Z,11.88
2017-11-05T00:46:31.320Z,11.78
2017-11-05T00:47:31.659Z,11.87
2017-11-05T00:48:31.679Z,11.94
2017-11-05T00:49:31.699Z,11.97
2017-11-05T00:50:31.718Z,11.91
2017-11-05T00:51:31.735Z,11.97
2017-11-05T00:52:32.076Z,12.02
2017-11-05T00:53:31.502Z,11.94
2017-11-05T00:54:31.792Z,12
2017-11-05T00:55:31.829Z,11.99
2017-11-05T00:56:31.509Z,12.06
2017-11-05T00:57:31.849Z,12.09
2017-11-05T00:58:31.546Z,12.04
2017-11-05T00:59:31.911Z,11.99
2017-11-05T01:00:31.902Z,11.88
2017-11-05T01:01:32.248Z,11.87
2017-11-05T01:02:31.951Z,11.78
2017-11-05T01:03:31.965Z,11.8
2017-11-05T01:04:31.985Z,11.59
2017-11-05T01:05:32.008Z,11.66
2017-11-05T01:06:32.019Z,11.52
2017-11-05T01:07:31.714Z,11.54
2017-11-05T01:08:32.065Z,11.54
2017-11-05T01:09:32.395Z,11.4
2017-11-05T01:10:32.118Z,11.36
2017-11-05T01:11:32.167Z,11.26
2017-11-05T01:12:32.134Z,11.19
2017-11-05T01:13:32.150Z,11.27
2017-11-05T01:14:32.495Z,11.25
2017-11-05T01:15:32.518Z,11.19
2017-11-05T01:16:32.207Z,11.27
2017-11-05T01:17:32.547Z,11.18
2017-11-05T01:18:32.571Z,11.19
2017-11-05T01:19:32.298Z,11.26
2017-11-05T01:20:31.962Z,11.19
2017-11-05T01:21:32.306Z,11.11
2017-11-05T01:22:32.014Z,11.08
2017-11-05T01:23:32.356Z,11.18
2017-11-05T01:24:32.686Z,11.18
2017-11-05T01:25:32.706Z,11.08
2017-11-05T01:26:32.722Z,11.25
2017-11-05T01:27:32.093Z,11.25
2017-11-05T01:28:32.112Z,11.29
2017-11-05T01:29:32.775Z,11.18
2017-11-05T01:30:32.795Z,11.23
2017-11-05T01:31:32.812Z,11.22
2017-11-05T01:32:32.188Z,11.25
2017-11-05T01:33:32.203Z,11.26
2017-11-05T01:34:32.546Z,11.25
2017-11-05T01:35:32.561Z,11.26
2017-11-05T01:36:32.578Z,11.29
2017-11-05T01:37:32.603Z,11.27
2017-11-05T01:38:32.618Z,11.36
2017-11-05T01:39:32.641Z,11.35
2017-11-05T01:40:32.737Z,11.35
2017-11-05T01:41:32.999Z,11.37
2017-11-05T01:42:33.040Z,11.36
2017-11-05T01:43:32.713Z,11.41
2017-11-05T01:44:32.729Z,11.37
2017-11-05T01:45:32.750Z,11.4
2017-11-05T01:46:32.495Z,11.41
2017-11-05T01:47:32.782Z,11.35
2017-11-05T01:48:33.124Z,11.26
2017-11-05T01:49:32.827Z,11.26
2017-11-05T01:50:32.837Z,11.32
2017-11-05T01:51:32.585Z,11.37
2017-11-05T01:52:33.199Z,11.44
2017-11-05T01:53:33.215Z,11.4
2017-11-05T01:54:33.230Z,11.37
2017-11-05T01:55:32.931Z,11.45
2017-11-05T01:56:32.957Z,11.41
2017-11-05T01:57:33.290Z,11.29
2017-11-05T01:58:33.330Z,11.48
2017-11-05T01:59:32.686Z,11.41
2017-11-05T02:00:33.375Z,11.41
2017-11-05T02:01:32.738Z,11.35
2017-11-05T02:02:33.389Z,11.37
2017-11-05T02:03:32.761Z,11.44
2017-11-05T02:04:33.102Z,11.41
2017-11-05T02:05:33.116Z,11.36
2017-11-05T02:06:33.211Z,11.33
2017-11-05T02:07:33.164Z,11.35
2017-11-05T02:08:33.497Z,11.41
2017-11-05T02:09:32.872Z,11.4
2017-11-05T02:10:32.892Z,11.4
2017-11-05T02:11:33.233Z,11.35
2017-11-05T02:12:33.252Z,11.37
2017-11-05T02:13:33.287Z,11.44
2017-11-05T02:14:33.292Z,11.43
2017-11-05T02:15:33.630Z,11.4
2017-11-05T02:16:33.331Z,11.3
2017-11-05T02:17:33.670Z,11.25
2017-11-05T02:18:33.364Z,11.26
2017-11-05T02:19:33.711Z,11.22
2017-11-05T02:20:33.722Z,11.15
2017-11-05T02:21:33.790Z,11.12
2017-11-05T02:22:33.770Z,11.05
2017-11-05T02:23:33.791Z,11.04
2017-11-05T02:24:33.471Z,11.04
2017-11-05T02:25:33.494Z,11.04
2017-11-05T02:26:33.190Z,11.04
2017-11-05T02:27:33.527Z,11.08
2017-11-05T02:28:33.873Z,11.08
2017-11-05T02:29:33.883Z,11.08
2017-11-05T02:30:33.906Z,10.9
2017-11-05T02:31:33.941Z,11.02
2017-11-05T02:32:33.299Z,10.99
2017-11-05T02:33:33.650Z,10.96
2017-11-05T02:34:34.001Z,10.93
2017-11-05T02:35:33.997Z,11.02
2017-11-05T02:36:33.751Z,10.99
2017-11-05T02:37:33.710Z,10.99
2017-11-05T02:38:33.731Z,10.92
2017-11-05T02:39:33.752Z,10.89
2017-11-05T02:40:33.772Z,10.9
2017-11-05T02:41:33.468Z,10.9
2017-11-05T02:42:33.804Z,10.82
2017-11-05T02:43:33.507Z,10.64
2017-11-05T02:44:33.842Z,10.54
2017-11-05T02:45:33.537Z,10.51
2017-11-05T02:46:33.894Z,10.56
2017-11-05T02:47:33.895Z,10.67
2017-11-05T02:48:34.236Z,10.63
2017-11-05T02:49:34.255Z,10.53
2017-11-05T02:50:34.271Z,10.56
2017-11-05T02:51:34.022Z,10.51
2017-11-05T02:52:33.668Z,10.53
2017-11-05T02:53:34.005Z,10.57
2017-11-05T02:54:34.368Z,10.48
2017-11-05T02:55:34.046Z,10.54
2017-11-05T02:56:34.062Z,10.48
2017-11-05T02:57:34.087Z,10.31
2017-11-05T02:58:33.777Z,10.44
2017-11-05T02:59:34.121Z,10.48
2017-11-05T03:00:34.139Z,10.44
2017-11-05T03:01:34.497Z,10.41
2017-11-05T03:02:34.499Z,10.46
2017-11-05T03:03:34.195Z,10.41
2017-11-05T03:04:34.204Z,10.35
2017-11-05T03:05:34.234Z,10.3
2017-11-05T03:06:34.254Z,10.26
2017-11-05T03:07:34.579Z,10.31
2017-11-05T03:08:34.276Z,10.33
2017-11-05T03:09:34.293Z,10.3
2017-11-05T03:10:34.043Z,10.2
2017-11-05T03:11:34.338Z,10.34
2017-11-05T03:12:34.364Z,10.28
2017-11-05T03:13:34.374Z,10.33
2017-11-05T03:14:34.386Z,10.41
2017-11-05T03:15:34.730Z,10.4
2017-11-05T03:16:34.743Z,10.35
2017-11-05T03:17:34.779Z,10.3
2017-11-05T03:18:34.782Z,10.33
2017-11-05T03:19:34.155Z,10.28
2017-11-05T03:20:34.818Z,10.28
2017-11-05T03:21:34.513Z,10.3
2017-11-05T03:22:34.853Z,10.37
2017-11-05T03:23:34.549Z,10.33
2017-11-05T03:24:34.567Z,10.26
2017-11-05T03:25:34.635Z,10.22
2017-11-05T03:26:34.938Z,10.3
2017-11-05T03:27:34.618Z,10.12
2017-11-05T03:28:34.317Z,10.25
2017-11-05T03:29:34.683Z,10.22
2017-11-05T03:30:35.004Z,10.23
2017-11-05T03:31:34.371Z,10.09
2017-11-05T03:32:34.719Z,10.01
2017-11-05T03:33:34.730Z,10.02
2017-11-05T03:34:35.074Z,10.02
2017-11-05T03:35:34.777Z,10.1
2017-11-05T03:36:34.784Z,10.19
2017-11-05T03:37:34.479Z,10.07
2017-11-05T03:38:34.498Z,10.12
2017-11-05T03:39:35.161Z,10.17
2017-11-05T03:40:34.585Z,10.25
2017-11-05T03:41:35.193Z,10.33
2017-11-05T03:42:35.209Z,10.48
2017-11-05T03:43:34.911Z,10.34
2017-11-05T03:44:35.251Z,10.37
2017-11-05T03:45:34.942Z,10.44
2017-11-05T03:46:35.310Z,10.34
2017-11-05T03:47:35.308Z,10.4
2017-11-05T03:48:35.322Z,10.37
2017-11-05T03:49:35.012Z,10.49
2017-11-05T03:50:35.032Z,10.42
2017-11-05T03:51:35.049Z,10.49
2017-11-05T03:52:35.403Z,10.54
2017-11-05T03:53:35.084Z,10.54
2017-11-05T03:54:35.433Z,10.46
2017-11-05T03:55:35.180Z,10.38
2017-11-05T03:56:34.821Z,10.49
2017-11-05T03:57:35.163Z,10.51
2017-11-05T03:58:35.498Z,10.54
2017-11-05T03:59:34.878Z,10.51
2017-11-05T04:00:35.541Z,10.46
2017-11-05T04:01:35.565Z,10.44
2017-11-05T04:02:35.249Z,10.51
2017-11-05T04:03:34.948Z,10.42
2017-11-05T04:04:35.606Z,10.37
2017-11-05T04:05:35.633Z,10.38
2017-11-05T04:06:35.323Z,10.28
2017-11-05T04:07:35.336Z,10.28
2017-11-05T04:08:35.699Z,10.28
2017-11-05T04:09:35.059Z,10.3
2017-11-05T04:10:35.397Z,10.33
2017-11-05T04:11:35.092Z,10.34
2017-11-05T04:12:35.431Z,10.35
2017-11-05T04:13:35.127Z,10.44
2017-11-05T04:14:35.468Z,10.44
2017-11-05T04:15:35.483Z,10.42
2017-11-05T04:16:35.828Z,10.48
2017-11-05T04:17:35.522Z,10.46
2017-11-05T04:18:35.858Z,10.49
2017-11-05T04:19:35.558Z,10.51
2017-11-05T04:20:35.894Z,10.53
2017-11-05T04:21:35.917Z,10.53
2017-11-05T04:22:35.938Z,10.49
2017-11-05T04:23:35.629Z,10.57
2017-11-05T04:24:35.994Z,10.51
2017-11-05T04:25:35.983Z,10.57
2017-11-05T04:26:35.691Z,10.51
2017-11-05T04:27:35.750Z,10.51
2017-11-05T04:28:36.036Z,10.49
2017-11-05T04:29:36.058Z,10.48
2017-11-05T04:30:35.758Z,10.49
2017-11-05T04:31:36.098Z,10.35
2017-11-05T04:32:35.790Z,10.35
2017-11-05T04:33:35.807Z,10.28
2017-11-05T04:34:35.505Z,10.38
2017-11-05T04:35:35.841Z,10.42
2017-11-05T04:36:36.184Z,10.37
2017-11-05T04:37:35.879Z,10.41
2017-11-05T04:38:35.900Z,10.35
2017-11-05T04:39:36.237Z,10.35
2017-11-05T04:40:36.260Z,10.37
2017-11-05T04:41:36.271Z,10.38
2017-11-05T04:42:36.303Z,10.41
2017-11-05T04:43:35.988Z,10.54
2017-11-05T04:44:36.375Z,10.53
2017-11-05T04:45:36.026Z,10.51
2017-11-05T04:46:36.045Z,10.53
2017-11-05T04:47:36.062Z,10.41
2017-11-05T04:48:35.760Z,10.35
2017-11-05T04:49:36.102Z,10.48
2017-11-05T04:50:36.434Z,10.34
2017-11-05T04:51:36.131Z,10.34
2017-11-05T04:52:36.152Z,10.25
2017-11-05T04:53:36.174Z,10.28
2017-11-05T04:54:36.195Z,10.3
2017-11-05T04:55:36.526Z,10.2
2017-11-05T04:56:36.228Z,10.33
2017-11-05T04:57:36.247Z,10.33
2017-11-05T04:58:36.261Z,10.19
2017-11-05T04:59:36.333Z,10.3
2017-11-05T05:00:36.295Z,10.34
2017-11-05T05:01:36.312Z,10.25
2017-11-05T05:02:36.336Z,10.22
2017-11-05T05:03:36.353Z,10.28
2017-11-05T05:04:36.688Z,10.25
2017-11-05T05:05:36.721Z,10.22
2017-11-05T05:06:36.404Z,10.17
2017-11-05T05:07:36.741Z,10.13
2017-11-05T05:08:36.116Z,10.2
2017-11-05T05:09:36.784Z,10.23
2017-11-05T05:10:36.474Z,10.22
2017-11-05T05:11:36.170Z,10.23
2017-11-05T05:12:36.830Z,10.28
2017-11-05T05:13:36.207Z,10.28
2017-11-05T05:14:36.857Z,10.33
2017-11-05T05:15:36.904Z,10.34
2017-11-05T05:16:36.908Z,10.33
2017-11-05T05:17:36.600Z,10.23
2017-11-05T05:18:36.944Z,10.3
2017-11-05T05:19:36.957Z,10.3
2017-11-05T05:20:36.665Z,10.42
2017-11-05T05:21:37.006Z,10.35
2017-11-05T05:22:36.693Z,10.34
2017-11-05T05:23:37.029Z,10.34
2017-11-05T05:24:36.728Z,10.41
2017-11-05T05:25:36.426Z,10.31
2017-11-05T05:26:36.764Z,10.28
2017-11-05T05:27:36.459Z,10.28
2017-11-05T05:28:37.117Z,10.3
2017-11-05T05:29:36.813Z,10.4
2017-11-05T05:30:36.510Z,10.38
2017-11-05T05:31:37.189Z,10.4
2017-11-05T05:32:36.867Z,10.4
2017-11-05T05:33:36.936Z,10.38
2017-11-05T05:34:36.900Z,10.48
2017-11-05T05:35:36.921Z,10.53
2017-11-05T05:36:36.942Z,10.46
2017-11-05T05:37:37.281Z,10.49
2017-11-05T05:38:36.974Z,10.59
2017-11-05T05:39:37.310Z,10.51
2017-11-05T05:40:37.012Z,10.59
2017-11-05T05:41:36.709Z,10.51
2017-11-05T05:42:37.374Z,10.56
2017-11-05T05:43:37.066Z,10.46
2017-11-05T05:44:37.084Z,10.53
2017-11-05T05:45:37.104Z,10.54
2017-11-05T05:46:37.121Z,10.64
2017-11-05T05:47:37.140Z,10.68
2017-11-05T05:48:37.152Z,10.68
2017-11-05T05:49:36.853Z,10.64
2017-11-05T05:50:37.241Z,10.67
2017-11-05T05:51:37.213Z,10.68
2017-11-05T05:52:37.566Z,10.53
2017-11-05T05:53:37.569Z,10.61
2017-11-05T05:54:37.262Z,10.59
2017-11-05T05:55:36.962Z,10.64
2017-11-05T05:56:37.308Z,10.71
2017-11-05T05:57:37.638Z,10.78
2017-11-05T05:58:37.656Z,10.81
2017-11-05T05:59:37.352Z,10.92
2017-11-05T06:00:37.690Z,10.79
2017-11-05T06:01:37.712Z,10.82
2017-11-05T06:02:37.417Z,10.84
2017-11-05T06:03:37.427Z,10.89
2017-11-05T06:04:37.126Z,10.94
2017-11-05T06:05:37.833Z,10.92
2017-11-05T06:06:37.489Z,10.94
2017-11-05T06:07:37.825Z,11.05
2017-11-05T06:08:37.519Z,10.94
2017-11-05T06:09:37.856Z,10.82
2017-11-05T06:10:37.554Z,10.87
2017-11-05T06:11:37.250Z,10.96
2017-11-05T06:12:37.916Z,10.89
2017-11-05T06:13:37.604Z,10.64
2017-11-05T06:14:37.944Z,10.6
2017-11-05T06:15:37.968Z,10.34
2017-11-05T06:16:37.337Z,10.35
2017-11-05T06:17:37.677Z,10.31
2017-11-05T06:18:37.704Z,10.3
2017-11-05T06:19:37.392Z,10.07
2017-11-05T06:20:37.738Z,9.99
2017-11-05T06:21:37.753Z,9.98
2017-11-05T06:22:37.767Z,9.98
2017-11-05T06:23:37.791Z,9.8
2017-11-05T06:24:37.808Z,9.82
2017-11-05T06:25:37.499Z,9.91
2017-11-05T06:26:37.840Z,9.92
2017-11-05T06:27:37.872Z,9.84
2017-11-05T06:28:38.211Z,9.59
2017-11-05T06:29:38.216Z,9.59
2017-11-05T06:30:37.912Z,9.65
2017-11-05T06:31:37.930Z,9.72
2017-11-05T06:32:38.266Z,9.69
2017-11-05T06:33:37.968Z,9.73
2017-11-05T06:34:37.983Z,9.65
2017-11-05T06:35:38.317Z,9.58
2017-11-05T06:36:38.016Z,9.66
2017-11-05T06:37:38.082Z,9.87
2017-11-05T06:38:38.055Z,9.89
2017-11-05T06:39:38.400Z,10.05
2017-11-05T06:40:38.086Z,10.07
2017-11-05T06:41:38.107Z,10.1
2017-11-05T06:42:37.800Z,10.19
2017-11-05T06:43:38.150Z,10.19
2017-11-05T06:44:38.485Z,10.25
2017-11-05T06:45:38.175Z,10.28
2017-11-05T06:46:37.871Z,10.31
2017-11-05T06:47:38.546Z,10.22
2017-11-05T06:48:38.228Z,10.34
2017-11-05T06:49:38.244Z,10.44
2017-11-05T06:50:38.267Z,10.54
2017-11-05T06:51:37.957Z,10.6
2017-11-05T06:52:37.975Z,10.64
2017-11-05T06:53:38.320Z,10.6
2017-11-05T06:54:38.660Z,10.59
2017-11-05T06:55:38.678Z,10.61
2017-11-05T06:56:38.424Z,10.71
2017-11-05T06:57:38.387Z,10.81
2017-11-05T06:58:38.402Z,10.79
2017-11-05T06:59:38.419Z,10.87
2017-11-05T07:00:38.765Z,10.96
2017-11-05T07:01:38.456Z,10.94
2017-11-05T07:02:38.797Z,11
2017-11-05T07:03:38.811Z,10.97
2017-11-05T07:04:38.186Z,11.11
2017-11-05T07:05:38.526Z,11.07
2017-11-05T07:06:38.863Z,10.92
2017-11-05T07:07:38.883Z,10.96
2017-11-05T07:08:38.903Z,11
2017-11-05T07:09:38.915Z,10.96
2017-11-05T07:10:38.937Z,11.07
2017-11-05T07:11:38.688Z,11.05
2017-11-05T07:12:38.656Z,11.15
2017-11-05T07:13:38.349Z,11.15
2017-11-05T07:14:39.032Z,11.26
2017-11-05T07:15:39.031Z,11.33
2017-11-05T07:16:38.403Z,11.35
2017-11-05T07:17:39.068Z,11.37
2017-11-05T07:18:39.083Z,11.44
2017-11-05T07:19:38.790Z,11.33
2017-11-05T07:20:39.117Z,11.45
2017-11-05T07:21:38.820Z,11.48
2017-11-05T07:22:38.836Z,11.44
2017-11-05T07:23:38.860Z,11.43
2017-11-05T07:24:38.550Z,11.4
2017-11-05T07:25:39.213Z,11.37
2017-11-05T07:26:38.953Z,11.4
2017-11-05T07:27:39.241Z,11.19
2017-11-05T07:28:39.265Z,11.26
2017-11-05T07:29:38.963Z,11.19
2017-11-05T07:30:38.669Z,11.19
2017-11-05T07:31:38.995Z,11.19
2017-11-05T07:32:39.349Z,11.35
2017-11-05T07:33:38.711Z,11.4
2017-11-05T07:34:39.078Z,11.47
2017-11-05T07:35:39.076Z,11.45
2017-11-05T07:36:39.411Z,11.54
2017-11-05T07:37:39.107Z,11.57
2017-11-05T07:38:39.126Z,11.52
2017-11-05T07:39:39.144Z,11.66
2017-11-05T07:40:39.482Z,11.62
2017-11-05T07:41:39.249Z,11.59
2017-11-05T07:42:39.519Z,11.63
2017-11-05T07:43:38.893Z,11.63
2017-11-05T07:44:39.247Z,11.55
2017-11-05T07:45:39.256Z,11.55
2017-11-05T07:46:39.601Z,11.59
2017-11-05T07:47:39.623Z,11.68
2017-11-05T07:48:39.639Z,11.8
2017-11-05T07:49:39.657Z,11.8
2017-11-05T07:50:39.675Z,11.81
2017-11-05T07:51:39.363Z,11.88
2017-11-05T07:52:39.386Z,12.02
2017-11-05T07:53:39.090Z,12.13
2017-11-05T07:54:39.422Z,12.09
2017-11-05T07:55:39.780Z,12.1
2017-11-05T07:56:39.458Z,12.1
2017-11-05T07:57:39.527Z,12.13
2017-11-05T07:58:39.821Z,11.95
2017-11-05T07:59:39.197Z,11.99
2017-11-05T08:00:39.864Z,11.97
2017-11-05T08:01:39.232Z,11.95
2017-11-05T08:02:39.890Z,11.99
2017-11-05T08:03:39.269Z,11.91
2017-11-05T08:04:39.933Z,11.94
2017-11-05T08:05:39.633Z,11.97
2017-11-05T08:06:39.971Z,12.07
2017-11-05T08:07:39.345Z,11.94
2017-11-05T08:08:39.684Z,11.86
2017-11-05T08:09:39.711Z,11.88
2017-11-05T08:10:40.047Z,11.9
2017-11-05T08:11:39.419Z,11.86
2017-11-05T08:12:39.810Z,11.99
2017-11-05T08:13:39.788Z,11.99
2017-11-05T08:14:40.118Z,11.97
2017-11-05T08:15:39.499Z,12.07
2017-11-05T08:16:40.157Z,12.18
2017-11-05T08:17:39.855Z,12.15
2017-11-05T08:18:39.552Z,12.28
2017-11-05T08:19:40.214Z,12.32
2017-11-05T08:20:40.232Z,12.27
2017-11-05T08:21:39.931Z,12.27
2017-11-05T08:22:39.948Z,12.37
2017-11-05T08:23:40.300Z,12.39
2017-11-05T08:24:39.986Z,12.47
2017-11-05T08:25:40.377Z,12.47
2017-11-05T08:26:40.032Z,12.57
2017-11-05T08:27:39.723Z,12.64
2017-11-05T08:28:39.748Z,12.62
2017-11-05T08:29:40.402Z,12.64
2017-11-05T08:30:39.831Z,12.62
2017-11-05T08:31:40.446Z,12.54
2017-11-05T08:32:40.464Z,12.62
2017-11-05T08:33:40.162Z,12.61
2017-11-05T08:34:40.504Z,12.73
2017-11-05T08:35:40.520Z,12.61
2017-11-05T08:36:39.898Z,12.61
2017-11-05T08:37:40.556Z,12.65
2017-11-05T08:38:40.258Z,12.57
2017-11-05T08:39:40.276Z,12.39
2017-11-05T08:40:40.313Z,12.4
2017-11-05T08:41:40.319Z,12.28
2017-11-05T08:42:40.334Z,11.99
2017-11-05T08:43:40.677Z,12.15
2017-11-05T08:44:40.051Z,12.07
2017-11-05T08:45:40.392Z,12.09
2017-11-05T08:46:40.409Z,12.04
2017-11-05T08:47:40.158Z,12.03
2017-11-05T08:48:40.772Z,12.18
2017-11-05T08:49:40.473Z,12.02
2017-11-05T08:50:40.818Z,12.03
2017-11-05T08:51:40.882Z,11.99
2017-11-05T08:52:40.908Z,11.95
2017-11-05T08:53:40.551Z,11.95
2017-11-05T08:54:40.262Z,12
2017-11-05T08:55:40.586Z,11.97
2017-11-05T08:56:40.605Z,11.91
2017-11-05T08:57:40.302Z,11.95
2017-11-05T08:58:40.648Z,12.06
2017-11-05T08:59:40.661Z,12.04
2017-11-05T09:00:40.681Z,12.15
2017-11-05T09:01:41.029Z,12.12
2017-11-05T09:02:40.715Z,12.02
2017-11-05T09:03:40.417Z,12.13
2017-11-05T09:04:40.755Z,11.99
2017-11-05T09:05:40.826Z,12.13
2017-11-05T09:06:41.112Z,12.2
2017-11-05T09:07:40.814Z,12.24
2017-11-05T09:08:41.176Z,12.29
2017-11-05T09:09:41.203Z,12.22
2017-11-05T09:10:40.869Z,12.39
2017-11-05T09:11:40.569Z,12.46
2017-11-05T09:12:41.236Z,12.64
2017-11-05T09:13:40.924Z,12.61
2017-11-05T09:14:41.272Z,12.75
2017-11-05T09:15:40.646Z,12.58
2017-11-05T09:16:41.306Z,12.76
2017-11-05T09:17:41.327Z,12.7
2017-11-05T09:18:40.700Z,12.87
2017-11-05T09:19:41.364Z,12.91
2017-11-05T09:20:40.787Z,13.09
2017-11-05T09:21:40.756Z,13.27
2017-11-05T09:22:41.417Z,13.22
2017-11-05T09:23:41.169Z,13.16
2017-11-05T09:24:41.135Z,13.04
2017-11-05T09:25:41.475Z,12.91
2017-11-05T09:26:41.267Z,13.01
2017-11-05T09:27:41.196Z,13.05
2017-11-05T09:28:41.209Z,13.04
2017-11-05T09:29:41.562Z,12.95
2017-11-05T09:30:41.599Z,13.03
2017-11-05T09:31:41.272Z,12.97
2017-11-05T09:32:41.292Z,12.93
2017-11-05T09:33:41.308Z,12.98
2017-11-05T09:34:41.655Z,12.8
2017-11-05T09:35:41.351Z,13.04
2017-11-05T09:36:41.371Z,13.01
2017-11-05T09:37:41.710Z,12.97
2017-11-05T09:38:41.139Z,13.08
2017-11-05T09:39:41.430Z,13.27
2017-11-05T09:40:41.450Z,13.33
2017-11-05T09:41:41.149Z,13.04
2017-11-05T09:42:41.486Z,13.13
2017-11-05T09:43:41.185Z,13.15
2017-11-05T09:44:41.877Z,13.13
2017-11-05T09:45:41.878Z,13.05
2017-11-05T09:46:41.564Z,13.22
2017-11-05T09:47:41.586Z,13.19
2017-11-05T09:48:41.609Z,13.18
2017-11-05T09:49:41.304Z,13.25
2017-11-05T09:50:41.965Z,13.5
2017-11-05T09:51:41.661Z,13.44
2017-11-05T09:52:42.010Z,13.52
2017-11-05T09:53:41.751Z,13.41
2017-11-05T09:54:41.722Z,13.25
2017-11-05T09:55:42.064Z,13.31
2017-11-05T09:56:42.091Z,13.31
2017-11-05T09:57:42.102Z,13.33
2017-11-05T09:58:41.476Z,13.3
2017-11-05T09:59:41.499Z,13.33
2017-11-05T10:00:41.844Z,13.44
2017-11-05T10:01:41.856Z,13.53
2017-11-05T10:02:41.878Z,13.57
2017-11-05T10:03:41.907Z,13.74
2017-11-05T10:04:41.924Z,13.78
2017-11-05T10:05:41.950Z,13.7
2017-11-05T10:06:42.280Z,13.72
2017-11-05T10:07:42.300Z,13.79
2017-11-05T10:08:41.995Z,13.72
2017-11-05T10:09:42.018Z,13.7
2017-11-05T10:10:42.412Z,13.72
2017-11-05T10:11:42.385Z,13.71
2017-11-05T10:12:42.401Z,13.83
2017-11-05T10:13:42.422Z,13.74
2017-11-05T10:14:42.120Z,13.59
2017-11-05T10:15:42.454Z,13.63
2017-11-05T10:16:42.478Z,13.5
2017-11-05T10:17:42.495Z,13.38
2017-11-05T10:18:42.198Z,13.39
2017-11-05T10:19:42.544Z,13.37
2017-11-05T10:20:42.242Z,13.44
2017-11-05T10:21:41.936Z,13.56
2017-11-05T10:22:42.277Z,13.68
2017-11-05T10:23:41.974Z,13.7
2017-11-05T10:24:42.319Z,13.67
2017-11-05T10:25:42.065Z,13.59
2017-11-05T10:26:42.361Z,13.46
2017-11-05T10:27:42.055Z,13.62
2017-11-05T10:28:42.402Z,13.56
2017-11-05T10:29:42.418Z,13.65
2017-11-05T10:30:42.758Z,13.7
2017-11-05T10:31:42.455Z,13.79
2017-11-05T10:32:42.481Z,13.74
2017-11-05T10:33:42.496Z,13.68
2017-11-05T10:34:42.840Z,13.71
2017-11-05T10:35:42.858Z,13.83
2017-11-05T10:36:42.559Z,13.72
2017-11-05T10:37:42.252Z,13.68
2017-11-05T10:38:42.598Z,13.72
2017-11-05T10:39:42.618Z,13.89
2017-11-05T10:40:42.684Z,14.04
2017-11-05T10:41:42.666Z,14.1
2017-11-05T10:42:42.997Z,14.2
2017-11-05T10:43:42.695Z,14.45
2017-11-05T10:44:43.038Z,14.6
2017-11-05T10:45:42.418Z,14.73
2017-11-05T10:46:42.764Z,14.88
2017-11-05T10:47:43.103Z,15.07
2017-11-05T10:48:42.808Z,15.43
2017-11-05T10:49:42.848Z,15.72
2017-11-05T10:50:43.171Z,15.8
2017-11-05T10:51:42.549Z,15.8
2017-11-05T10:52:43.212Z,15.86
2017-11-05T10:53:42.920Z,15.97
2017-11-05T10:54:43.265Z,15.64
2017-11-05T10:55:42.692Z,15.24
2017-11-05T10:56:42.979Z,15.29
2017-11-05T10:57:43.321Z,15.29
2017-11-05T10:58:43.022Z,15.09
2017-11-05T10:59:43.045Z,14.96
2017-11-05T11:00:43.068Z,15.04
2017-11-05T11:01:43.093Z,14.88
2017-11-05T11:02:43.118Z,15.03
2017-11-05T11:03:43.131Z,15.06
2017-11-05T11:04:42.833Z,15.07
2017-11-05T11:05:43.501Z,14.88
2017-11-05T11:06:43.525Z,14.88
2017-11-05T11:07:42.898Z,14.81
2017-11-05T11:08:43.244Z,14.88
2017-11-05T11:09:42.946Z,14.94
2017-11-05T11:10:43.296Z,14.89
2017-11-05T11:11:43.627Z,14.94
2017-11-05T11:12:43.006Z,14.92
2017-11-05T11:13:43.344Z,14.91
2017-11-05T11:14:43.050Z,15.03
2017-11-05T11:15:43.392Z,15.22
2017-11-05T11:16:43.738Z,15.22
2017-11-05T11:17:43.754Z,15.36
2017-11-05T11:18:43.457Z,15.36
2017-11-05T11:19:43.801Z,15.24
2017-11-05T11:20:43.499Z,15.43
2017-11-05T11:21:43.521Z,15.51
2017-11-05T11:22:43.548Z,15.57
2017-11-05T11:23:43.882Z,15.37
2017-11-05T11:24:43.580Z,15.52
2017-11-05T11:25:43.625Z,15.31
2017-11-05T11:26:43.623Z,15.43
2017-11-05T11:27:43.967Z,15.72
2017-11-05T11:28:43.666Z,15.72
2017-11-05T11:29:43.365Z,15.72
2017-11-05T11:30:43.763Z,15.76
2017-11-05T11:31:43.739Z,15.58
2017-11-05T11:32:43.754Z,15.51
2017-11-05T11:33:43.766Z,15.44
2017-11-05T11:34:43.790Z,15.44
2017-11-05T11:35:43.819Z,15.52
2017-11-05T11:36:43.833Z,15.58
2017-11-05T11:37:43.855Z,15.57
2017-11-05T11:38:43.562Z,15.39
2017-11-05T11:39:43.896Z,15.27
2017-11-05T11:40:43.593Z,15.14
2017-11-05T11:41:43.938Z,14.94
2017-11-05T11:42:44.284Z,15.09
2017-11-05T11:43:44.298Z,14.88
2017-11-05T11:44:44.318Z,14.86
2017-11-05T11:45:44.392Z,14.86
2017-11-05T11:46:44.040Z,14.89
2017-11-05T11:47:44.388Z,15.15
2017-11-05T11:48:44.407Z,15.24
2017-11-05T11:49:44.112Z,15.35
2017-11-05T11:50:44.125Z,15.36
2017-11-05T11:51:44.153Z,15.4
2017-11-05T11:52:43.841Z,15.22
2017-11-05T11:53:44.526Z,14.96
2017-11-05T11:54:43.888Z,14.86
2017-11-05T11:55:44.546Z,15.04
2017-11-05T11:56:43.925Z,15.22
2017-11-05T11:57:43.947Z,15.21
2017-11-05T11:58:43.968Z,15.14
2017-11-05T11:59:44.629Z,15.06
2017-11-05T12:00:44.663Z,15
2017-11-05T12:01:44.672Z,15.03
2017-11-05T12:02:44.048Z,14.96
2017-11-05T12:03:44.392Z,14.94
2017-11-05T12:04:44.416Z,15.06
2017-11-05T12:05:44.113Z,15.21
2017-11-05T12:06:44.455Z,15.15
2017-11-05T12:07:44.475Z,15.25
2017-11-05T12:08:44.492Z,15.44
2017-11-05T12:09:44.193Z,15.29
2017-11-05T12:10:44.541Z,15.24
2017-11-05T12:11:44.882Z,15.19
2017-11-05T12:12:44.581Z,15.17
2017-11-05T12:13:44.599Z,15.21
2017-11-05T12:14:44.943Z,15.22
2017-11-05T12:15:44.959Z,15.24
2017-11-05T12:16:44.988Z,15.39
2017-11-05T12:17:44.681Z,15.39
2017-11-05T12:18:44.382Z,15.42
2017-11-05T12:19:44.401Z,15.52
2017-11-05T12:20:44.792Z,15.54
2017-11-05T12:21:45.088Z,15.52
2017-11-05T12:22:45.104Z,15.61
2017-11-05T12:23:44.481Z,15.67
2017-11-05T12:24:44.503Z,15.65
2017-11-05T12:25:44.537Z,15.82
2017-11-05T12:26:44.935Z,15.8
2017-11-05T12:27:45.207Z,15.73
2017-11-05T12:28:44.930Z,15.59
2017-11-05T12:29:44.953Z,15.55
2017-11-05T12:30:45.289Z,15.42
2017-11-05T12:31:44.973Z,15.15
2017-11-05T12:32:44.995Z,14.88
2017-11-05T12:33:45.026Z,14.94
2017-11-05T12:34:45.067Z,14.85
2017-11-05T12:35:45.052Z,14.72
2017-11-05T12:36:45.077Z,14.84
2017-11-05T12:37:45.506Z,14.77
2017-11-05T12:38:45.143Z,14.63
2017-11-05T12:39:45.151Z,14.6
2017-11-05T12:40:45.210Z,14.7
2017-11-05T12:41:45.177Z,14.55
2017-11-05T12:42:45.541Z,14.47
2017-11-05T12:43:45.217Z,14.6
2017-11-05T12:44:45.239Z,14.59
2017-11-05T12:45:44.937Z,14.48
2017-11-05T12:46:45.290Z,14.54
2017-11-05T12:47:45.629Z,14.5
2017-11-05T12:48:45.658Z,14.36
2017-11-05T12:49:45.364Z,14.45
2017-11-05T12:50:45.679Z,14.35
2017-11-05T12:51:45.058Z,14.53
2017-11-05T12:52:45.449Z,14.44
2017-11-05T12:53:45.422Z,14.33
2017-11-05T12:54:45.786Z,14.35
2017-11-05T12:55:45.459Z,14.2
2017-11-05T12:56:45.483Z,14.23